Time;durP1;ratioP1;P1;durP2;ratioP2;P2;SDS_P1;SDS_P2;PMS_P1;PMS_P2;Temp;Humidity;BMP_temperature;BMP_pressure;BME280_temperature;BME280_humidity;BME280_pressure;Samples;Min_cycle;Max_cycle;Signal;HPM_P1;HPM_P2
2023/01/20 00:01:37;;;;;;;;;;;;;;;;;;5048508;28;19919;-61
2023/01/20 00:04:03;;;;;;;;;;;;;;;;;;5048745;28;19913;-61
2023/01/20 00:06:29;;;;;;;;;;;;;;;;;;5048667;28;20300;-62
2023/01/20 00:08:55;;;;;;;;;;;;;;;;;;5049549;28;20416;-60
2023/01/20 00:11:21;;;;;;;;;;;;;;;;;;5049367;28;19958;-61
2023/01/20 00:13:47;;;;;;;;;;;;;;;;;;5049108;28;19955;-62
2023/01/20 00:16:13;;;;;;;;;;;;;;;;;;5049418;28;19920;-61
2023/01/20 00:18:38;;;;;;;;;;;;;;;;;;5053214;28;19971;-61
2023/01/20 00:21:04;;;;;;;;;;;;;;;;;;5052634;28;19916;-61
2023/01/20 00:23:30;;;;;;;;;;;;;;;;;;5053176;28;19913;-61
2023/01/20 00:25:56;;;;;;;;;;;;;;;;;;5053175;28;19955;-61
2023/01/20 00:28:22;;;;;;;;;;;;;;;;;;5053214;28;19909;-61
2023/01/20 00:30:48;;;;;;;;;;;;;;;;;;5052819;28;19912;-61
2023/01/20 00:33:14;;;;;;;;;;;;;;;;;;5052230;28;19956;-62
2023/01/20 00:35:40;;;;;;;;;;;;;;;;;;5052384;28;19947;-61
2023/01/20 00:38:06;;;;;;;;;;;;;;;;;;5052746;28;19912;-60
2023/01/20 00:40:32;;;;;;;;;;;;;;;;;;5052936;28;19913;-61
2023/01/20 00:42:57;;;;;;;;;;;;;;;;;;5052601;28;19909;-61
2023/01/20 00:45:23;;;;;;;;;;;;;;;;;;5052152;28;19920;-61
2023/01/20 00:47:49;;;;;;;;;;;;;;;;;;5052214;28;19913;-60
2023/01/20 00:50:15;;;;;;;;;;;;;;;;;;5052503;28;20391;-61
2023/01/20 00:52:41;;;;;;;;;;;;;;;;;;5052207;28;20511;-61
2023/01/20 00:55:07;;;;;;;;;;;;;;;;;;5052483;28;19913;-61
2023/01/20 00:57:33;;;;;;;;;;;;;;;;;;5052637;28;20450;-61
2023/01/20 00:59:59;;;;;;;;;;;;;;;;;;5052274;28;19915;-61
2023/01/20 01:02:25;;;;;;;;;;;;;;;;;;5052022;28;20010;-60
2023/01/20 01:04:51;;;;;;;;;;;;;;;;;;5052115;28;19987;-61
2023/01/20 01:07:17;;;;;;;;;;;;;;;;;;5050231;28;20007;-60
2023/01/20 01:09:43;;;;;;;;;;;;;;;;;;5052145;28;19916;-61
2023/01/20 01:12:09;;;;;;;;;;;;;;;;;;5051938;28;19983;-61
2023/01/20 01:14:34;;;;;;;;;;;;;;;;;;5052150;28;19908;-60
2023/01/20 01:17:00;;;;;;;;;;;;;;;;;;5051961;28;20483;-61
2023/01/20 01:19:26;;;;;;;;;;;;;;;;;;5050796;28;20038;-61
2023/01/20 01:21:52;;;;;;;;;;;;;;;;;;5051737;28;20627;-61
2023/01/20 01:24:18;;;;;;;;;;;;;;;;;;5052128;28;19921;-61
2023/01/20 01:26:44;;;;;;;;;;;;;;;;;;5051326;28;20333;-61
2023/01/20 01:29:10;;;;;;;;;;;;;;;;;;5051142;28;19935;-61
2023/01/20 01:31:37;;;;;;;;;;;;;;;;;;5051658;28;19913;-60
2023/01/20 01:34:03;;;;;;;;;;;;;;;;;;5051068;28;19912;-61
2023/01/20 01:36:29;;;;;;;;;;;;;;;;;;5051737;28;19921;-61
2023/01/20 01:38:55;;;;;;;;;;;;;;;;;;5051742;28;20004;-62
2023/01/20 01:41:21;;;;;;;;;;;;;;;;;;5051530;28;20380;-61
2023/01/20 01:43:47;;;;;;;;;;;;;;;;;;5051490;28;19913;-61
2023/01/20 01:46:13;;;;;;;;;;;;;;;;;;5051573;28;20015;-60
2023/01/20 01:48:38;;;;;;;;;;;;;;;;;;5050961;28;19908;-61
2023/01/20 01:51:04;;;;;;;;;;;;;;;;;;5051224;28;20321;-61
2023/01/20 01:53:30;;;;;;;;;;;;;;;;;;5051240;28;19920;-60
2023/01/20 01:55:56;;;;;;;;;;;;;;;;;;5050970;28;19924;-62
2023/01/20 01:58:23;;;;;;;;;;;;;;;;;;5051210;28;20457;-62
2023/01/20 02:00:48;;;;;;;;;;;;;;;;;;5050948;28;19970;-61
2023/01/20 02:03:14;;;;;;;;;;;;;;;;;;5050802;28;20399;-61
2023/01/20 02:05:40;;;;;;;;;;;;;;;;;;5049419;28;19909;-61
2023/01/20 02:08:06;;;;;;;;;;;;;;;;;;5051207;28;19920;-61
2023/01/20 02:10:32;;;;;;;;;;;;;;;;;;5051119;28;20341;-61
2023/01/20 02:12:58;;;;;;;;;;;;;;;;;;5051288;28;19912;-62
2023/01/20 02:15:24;;;;;;;;;;;;;;;;;;5050652;28;20321;-62
2023/01/20 02:17:52;;;;;;;;;;;;;;;;;;5050412;28;19920;-61
2023/01/20 02:20:18;;;;;;;;;;;;;;;;;;5050755;28;19916;-61
2023/01/20 02:22:44;;;;;;;;;;;;;;;;;;5050667;28;19917;-61
2023/01/20 02:25:10;;;;;;;;;;;;;;;;;;5050857;28;20003;-61
2023/01/20 02:27:36;;;;;;;;;;;;;;;;;;5050522;28;19909;-62
2023/01/20 02:30:02;;;;;;;;;;;;;;;;;;5049976;28;19913;-62
2023/01/20 02:32:28;;;;;;;;;;;;;;;;;;5050563;28;19920;-62
2023/01/20 02:34:54;;;;;;;;;;;;;;;;;;5043288;28;20377;-61
2023/01/20 02:37:20;;;;;;;;;;;;;;;;;;5050885;28;20009;-61
2023/01/20 02:39:45;;;;;;;;;;;;;;;;;;5049551;28;20584;-61
2023/01/20 02:42:11;;;;;;;;;;;;;;;;;;5050143;28;19909;-62
2023/01/20 02:44:37;;;;;;;;;;;;;;;;;;5049356;28;19925;-62
2023/01/20 02:47:03;;;;;;;;;;;;;;;;;;5050111;28;20000;-61
2023/01/20 02:49:29;;;;;;;;;;;;;;;;;;5050347;28;20293;-61
2023/01/20 02:51:55;;;;;;;;;;;;;;;;;;5049708;28;20435;-61
2023/01/20 02:54:21;;;;;;;;;;;;;;;;;;5050201;28;19992;-61
2023/01/20 02:56:47;;;;;;;;;;;;;;;;;;5049548;28;19924;-61
2023/01/20 02:59:13;;;;;;;;;;;;;;;;;;5049668;28;19952;-62
2023/01/20 03:01:39;;;;;;;;;;;;;;;;;;5050620;28;19920;-62
2023/01/20 03:04:05;;;;;;;;;;;;;;;;;;5049594;28;20269;-61
2023/01/20 03:06:30;;;;;;;;;;;;;;;;;;5049474;28;19917;-62
2023/01/20 03:08:56;;;;;;;;;;;;;;;;;;5049227;28;19958;-62
2023/01/20 03:11:22;;;;;;;;;;;;;;;;;;5049809;28;20365;-62
2023/01/20 03:13:48;;;;;;;;;;;;;;;;;;5049289;28;19915;-61
2023/01/20 03:16:14;;;;;;;;;;;;;;;;;;5049863;28;20392;-61
2023/01/20 03:18:40;;;;;;;;;;;;;;;;;;5049213;28;19909;-62
2023/01/20 03:21:06;;;;;;;;;;;;;;;;;;5047568;28;20409;-62
2023/01/20 03:23:32;;;;;;;;;;;;;;;;;;5049559;28;19944;-61
2023/01/20 03:25:58;;;;;;;;;;;;;;;;;;5049234;28;20522;-62
2023/01/20 03:28:23;;;;;;;;;;;;;;;;;;5049189;28;19932;-62
2023/01/20 03:31:05;;;;;;;;;;;;;;;;;;5006579;28;20324;-61
2023/01/20 03:33:31;;;;;;;;;;;;;;;;;;5007086;28;20498;-62
2023/01/20 03:35:57;;;;;;;;;;;;;;;;;;5006806;28;19921;-62
2023/01/20 03:38:23;;;;;;;;;;;;;;;;;;5006839;28;19957;-62
2023/01/20 03:40:49;;;;;;;;;;;;;;;;;;5007125;28;19909;-61
2023/01/20 03:43:15;;;;;;;;;;;;;;;;;;5006589;28;19909;-61
2023/01/20 03:45:41;;;;;;;;;;;;;;;;;;5006672;28;19931;-61
2023/01/20 03:48:07;;;;;;;;;;;;;;;;;;5006599;28;20008;-61
2023/01/20 03:50:33;;;;;;;;;;;;;;;;;;5006833;28;20376;-61
2023/01/20 03:52:58;;;;;;;;;;;;;;;;;;5007064;28;19920;-61
2023/01/20 03:55:24;;;;;;;;;;;;;;;;;;5006506;28;19913;-62
2023/01/20 03:57:50;;;;;;;;;;;;;;;;;;5006488;28;19914;-62
2023/01/20 04:00:16;;;;;;;;;;;;;;;;;;5006777;28;20515;-61
2023/01/20 04:02:42;;;;;;;;;;;;;;;;;;5006201;28;20029;-62
2023/01/20 04:05:08;;;;;;;;;;;;;;;;;;5006617;28;20318;-62
2023/01/20 04:07:34;;;;;;;;;;;;;;;;;;5014979;28;20382;-62
2023/01/20 04:10:00;;;;;;;;;;;;;;;;;;5047258;28;19913;-62
2023/01/20 04:12:26;;;;;;;;;;;;;;;;;;5048513;28;19912;-62
2023/01/20 04:14:52;;;;;;;;;;;;;;;;;;5048972;28;20296;-62
2023/01/20 04:17:17;;;;;;;;;;;;;;;;;;5048662;28;19928;-62
2023/01/20 04:19:43;;;;;;;;;;;;;;;;;;5047978;28;19909;-62
2023/01/20 04:22:09;;;;;;;;;;;;;;;;;;5048687;28;20393;-60
2023/01/20 04:24:35;;;;;;;;;;;;;;;;;;5048351;28;19923;-61
2023/01/20 04:27:01;;;;;;;;;;;;;;;;;;5048403;28;19962;-61
2023/01/20 04:29:27;;;;;;;;;;;;;;;;;;5048595;28;19909;-61
2023/01/20 04:31:53;;;;;;;;;;;;;;;;;;5048412;28;19912;-61
2023/01/20 04:34:19;;;;;;;;;;;;;;;;;;5048604;28;19996;-61
2023/01/20 04:36:44;;;;;;;;;;;;;;;;;;5048194;28;19928;-61
2023/01/20 04:39:10;;;;;;;;;;;;;;;;;;5048406;28;20285;-60
2023/01/20 04:41:36;;;;;;;;;;;;;;;;;;5048072;28;20022;-62
2023/01/20 04:44:02;;;;;;;;;;;;;;;;;;5048547;28;19917;-61
2023/01/20 04:46:28;;;;;;;;;;;;;;;;;;5048637;28;19967;-62
2023/01/20 04:48:54;;;;;;;;;;;;;;;;;;5048286;28;19983;-62
2023/01/20 04:51:20;;;;;;;;;;;;;;;;;;5048840;28;19908;-62
2023/01/20 04:53:46;;;;;;;;;;;;;;;;;;5048527;28;19917;-61
2023/01/20 04:56:12;;;;;;;;;;;;;;;;;;5048127;28;19932;-62
2023/01/20 04:58:38;;;;;;;;;;;;;;;;;;5042248;28;19999;-62
2023/01/20 05:01:03;;;;;;;;;;;;;;;;;;5048472;28;19909;-61
2023/01/20 05:03:29;;;;;;;;;;;;;;;;;;5049871;28;19912;-61
2023/01/20 05:05:55;;;;;;;;;;;;;;;;;;5052021;28;19909;-62
2023/01/20 05:08:21;;;;;;;;;;;;;;;;;;5052314;28;20399;-61
2023/01/20 05:10:47;;;;;;;;;;;;;;;;;;5051940;28;19916;-61
2023/01/20 05:13:13;;;;;;;;;;;;;;;;;;5051755;28;20008;-62
2023/01/20 05:15:39;;;;;;;;;;;;;;;;;;5052396;28;20041;-61
2023/01/20 05:18:05;;;;;;;;;;;;;;;;;;5051888;28;20626;-61
2023/01/20 05:20:31;;;;;;;;;;;;;;;;;;5051677;28;19919;-62
2023/01/20 05:22:57;;;;;;;;;;;;;;;;;;5051702;28;20399;-61
2023/01/20 05:25:23;;;;;;;;;;;;;;;;;;5051582;28;19912;-62
2023/01/20 05:27:48;;;;;;;;;;;;;;;;;;5051586;28;20468;-62
2023/01/20 05:30:14;;;;;;;;;;;;;;;;;;5052221;28;19915;-62
2023/01/20 05:32:40;;;;;;;;;;;;;;;;;;5049981;28;20313;-62
2023/01/20 05:35:06;;;;;;;;;;;;;;;;;;5051662;28;19916;-62
2023/01/20 05:37:32;;;;;;;;;;;;;;;;;;5051733;28;19925;-62
2023/01/20 05:39:58;;;;;;;;;;;;;;;;;;5050943;28;19913;-61
2023/01/20 05:42:24;;;;;;;;;;;;;;;;;;5051414;28;19909;-62
2023/01/20 05:44:50;;;;;;;;;;;;;;;;;;5051719;28;19947;-61
2023/01/20 05:47:16;;;;;;;;;;;;;;;;;;5051007;28;19913;-62
2023/01/20 05:49:41;;;;;;;;;;;;;;;;;;5051369;28;20666;-63
2023/01/20 05:52:07;;;;;;;;;;;;;;;;;;5051359;28;20027;-62
2023/01/20 05:54:33;;;;;;;;;;;;;;;;;;5050939;28;19917;-60
2023/01/20 05:56:59;;;;;;;;;;;;;;;;;;5050984;28;19963;-61
2023/01/20 05:59:25;;;;;;;;;;;;;;;;;;5051121;28;20401;-62
2023/01/20 06:01:51;;;;;;;;;;;;;;;;;;5051516;28;19920;-62
2023/01/20 06:04:17;;;;;;;;;;;;;;;;;;5051393;28;19970;-62
2023/01/20 06:06:43;;;;;;;;;;;;;;;;;;5050556;28;19913;-61
2023/01/20 06:09:09;;;;;;;;;;;;;;;;;;5050655;28;19932;-61
2023/01/20 06:11:35;;;;;;;;;;;;;;;;;;5051171;28;20378;-61
2023/01/20 06:14:01;;;;;;;;;;;;;;;;;;5048486;28;19920;-62
2023/01/20 06:16:28;;;;;;;;;;;;;;;;;;5050142;28;19920;-61
2023/01/20 06:18:54;;;;;;;;;;;;;;;;;;5050927;28;20309;-61
2023/01/20 06:21:20;;;;;;;;;;;;;;;;;;5050341;28;20413;-62
2023/01/20 06:23:46;;;;;;;;;;;;;;;;;;5050182;28;19909;-62
2023/01/20 06:26:12;;;;;;;;;;;;;;;;;;5050773;28;20000;-61
2023/01/20 06:28:38;;;;;;;;;;;;;;;;;;5050312;28;20499;-62
2023/01/20 06:31:04;;;;;;;;;;;;;;;;;;5050610;28;19986;-62
2023/01/20 06:33:29;;;;;;;;;;;;;;;;;;5050419;28;19990;-60
2023/01/20 06:35:55;;;;;;;;;;;;;;;;;;5050810;28;19971;-59
2023/01/20 06:38:21;;;;;;;;;;;;;;;;;;5050341;28;20536;-62
2023/01/20 06:40:47;;;;;;;;;;;;;;;;;;5050350;28;19981;-62
2023/01/20 06:43:13;;;;;;;;;;;;;;;;;;5050484;28;20431;-61
2023/01/20 06:45:39;;;;;;;;;;;;;;;;;;5049823;28;19927;-62
2023/01/20 06:48:05;;;;;;;;;;;;;;;;;;5050257;28;19913;-62
2023/01/20 06:50:31;;;;;;;;;;;;;;;;;;5050216;28;20012;-62
2023/01/20 06:52:57;;;;;;;;;;;;;;;;;;5049912;28;19936;-61
2023/01/20 06:55:23;;;;;;;;;;;;;;;;;;5049861;28;19996;-61
2023/01/20 06:57:49;;;;;;;;;;;;;;;;;;5049987;28;20340;-61
2023/01/20 07:00:15;;;;;;;;;;;;;;;;;;5049487;28;19955;-61
2023/01/20 07:02:41;;;;;;;;;;;;;;;;;;5048776;28;20003;-61
2023/01/20 07:05:07;;;;;;;;;;;;;;;;;;5043336;28;19912;-65
2023/01/20 07:07:33;;;;;;;;;;;;;;;;;;5049459;28;19999;-67
2023/01/20 07:09:59;;;;;;;;;;;;;;;;;;5050125;28;20356;-67
2023/01/20 07:12:25;;;;;;;;;;;;;;;;;;5049461;28;19975;-66
2023/01/20 07:14:51;;;;;;;;;;;;;;;;;;5049539;28;19960;-66
2023/01/20 07:17:17;;;;;;;;;;;;;;;;;;5049135;28;19955;-63
2023/01/20 07:19:43;;;;;;;;;;;;;;;;;;5049607;28;19913;-66
2023/01/20 07:22:08;;;;;;;;;;;;;;;;;;5049291;28;19909;-66
2023/01/20 07:24:34;;;;;;;;;;;;;;;;;;5048924;28;19936;-66
2023/01/20 07:27:00;;;;;;;;;;;;;;;;;;5048447;28;20046;-66
2023/01/20 07:29:26;;;;;;;;;;;;;;;;;;5048899;28;19920;-66
2023/01/20 07:31:52;;;;;;;;;;;;;;;;;;5048742;28;20370;-66
2023/01/20 07:34:18;;;;;;;;;;;;;;;;;;5048985;28;19913;-65
2023/01/20 07:36:44;;;;;;;;;;;;;;;;;;5048094;28;19967;-66
2023/01/20 07:39:10;;;;;;;;;;;;;;;;;;5049085;28;19916;-65
2023/01/20 07:41:36;;;;;;;;;;;;;;;;;;5049053;28;19931;-62
2023/01/20 07:44:02;;;;;;;;;;;;;;;;;;5049591;28;19920;-65
2023/01/20 07:46:28;;;;;;;;;;;;;;;;;;5049319;28;20389;-64
2023/01/20 07:48:53;;;;;;;;;;;;;;;;;;5049182;28;19913;-66
2023/01/20 07:51:19;;;;;;;;;;;;;;;;;;5048765;28;19916;-65
2023/01/20 07:53:45;;;;;;;;;;;;;;;;;;5049424;28;19908;-66
2023/01/20 07:56:11;;;;;;;;;;;;;;;;;;5048739;28;19916;-65
2023/01/20 07:58:37;;;;;;;;;;;;;;;;;;5048935;28;19920;-65
2023/01/20 08:01:03;;;;;;;;;;;;;;;;;;5049101;28;20289;-66
2023/01/20 08:03:29;;;;;;;;;;;;;;;;;;5048831;28;20009;-66
2023/01/20 08:05:55;;;;;;;;;;;;;;;;;;5048303;28;20340;-65
2023/01/20 08:08:20;;;;;;;;;;;;;;;;;;5283057;22;21319;-60
2023/01/20 08:10:46;;;;;;;;;;;;;;;;;;5064024;28;20668;-63
2023/01/20 08:13:12;;;;;;;;;;;;;;;;;;5068819;28;19912;-65
2023/01/20 08:15:38;;;;;;;;;;;;;;;;;;5069033;28;19912;-66
2023/01/20 08:18:04;;;;;;;;;;;;;;;;;;5068557;28;19913;-66
2023/01/20 08:20:30;;;;;;;;;;;;;;;;;;5068988;28;19916;-66
2023/01/20 08:22:56;;;;;;;;;;;;;;;;;;5068699;28;20359;-64
2023/01/20 08:25:22;;;;;;;;;;;;;;;;;;5068932;28;19919;-65
2023/01/20 08:27:48;;;;;;;;;;;;;;;;;;5068537;28;20479;-65
2023/01/20 08:30:14;;;;;;;;;;;;;;;;;;5068507;28;19995;-66
2023/01/20 08:32:40;;;;;;;;;;;;;;;;;;5067806;28;20399;-65
2023/01/20 08:35:06;;;;;;;;;;;;;;;;;;5068772;28;20002;-66
2023/01/20 08:37:32;;;;;;;;;;;;;;;;;;5068479;28;19943;-66
2023/01/20 08:39:58;;;;;;;;;;;;;;;;;;5072302;28;19912;-67
2023/01/20 08:42:24;;;;;;;;;;;;;;;;;;5072486;28;20074;-67
2023/01/20 08:44:50;;;;;;;;;;;;;;;;;;5072144;28;20379;-67
2023/01/20 08:47:15;;;;;;;;;;;;;;;;;;5072093;28;19915;-66
2023/01/20 08:49:42;;;;;;;;;;;;;;;;;;5072241;28;19966;-66
2023/01/20 08:52:07;;;;;;;;;;;;;;;;;;5072314;28;19917;-66
2023/01/20 08:54:33;;;;;;;;;;;;;;;;;;5071741;28;20505;-65
2023/01/20 08:56:59;;;;;;;;;;;;;;;;;;5072039;28;19982;-66
2023/01/20 08:59:25;;;;;;;;;;;;;;;;;;5072249;28;19921;-67
2023/01/20 09:01:51;;;;;;;;;;;;;;;;;;5071287;28;19912;-64
2023/01/20 09:04:17;;;;;;;;;;;;;;;;;;5072023;28;19913;-65
2023/01/20 09:06:43;;;;;;;;;;;;;;;;;;5071620;28;19912;-67
2023/01/20 09:09:09;;;;;;;;;;;;;;;;;;5071600;28;19935;-67
2023/01/20 09:11:35;;;;;;;;;;;;;;;;;;5071994;28;19909;-67
2023/01/20 09:14:01;;;;;;;;;;;;;;;;;;5071752;28;19912;-67
2023/01/20 09:16:27;;;;;;;;;;;;;;;;;;5071341;28;19920;-66
2023/01/20 09:18:53;;;;;;;;;;;;;;;;;;5071573;28;19957;-67
2023/01/20 09:21:19;;;;;;;;;;;;;;;;;;5070246;28;19913;-66
2023/01/20 09:23:47;;;;;;;;;;;;;;;;;;5071581;28;19916;-67
2023/01/20 09:26:12;;;;;;;;;;;;;;;;;;5072188;28;20046;-67
2023/01/20 09:28:38;;;;;;;;;;;;;;;;;;5071088;28;20003;-66
2023/01/20 09:31:04;;;;;;;;;;;;;;;;;;5071101;28;19965;-66
2023/01/20 09:33:30;;;;;;;;;;;;;;;;;;5071739;28;19912;-67
2023/01/20 09:35:56;;;;;;;;;;;;;;;;;;5071123;28;19943;-69
2023/01/20 09:43:55;;;;;;;;;;;;;;;;;;5071197;28;19919;-68
2023/01/20 09:46:20;;;;;;;;;;;;;;;;;;5071368;28;19916;-68
2023/01/20 09:54:16;;;;;;;;;;;;;;;;;;5071165;28;19919;-67
2023/01/20 09:56:41;;;;;;;;;;;;;;;;;;5070808;28;19921;-67
2023/01/20 09:59:07;;;;;;;;;;;;;;;;;;5071595;28;19915;-67
2023/01/20 10:01:33;;;;;;;;;;;;;;;;;;5070675;28;19999;-66
2023/01/20 10:03:59;;;;;;;;;;;;;;;;;;5071195;28;20346;-66
2023/01/20 10:06:25;;;;;;;;;;;;;;;;;;5070936;28;19916;-65
2023/01/20 10:08:51;;;;;;;;;;;;;;;;;;5070774;28;20321;-67
2023/01/20 10:11:17;;;;;;;;;;;;;;;;;;5070913;28;19908;-67
2023/01/20 10:13:46;;;;;;;;;;;;;;;;;;5070710;28;19915;-68
2023/01/20 10:16:11;;;;;;;;;;;;;;;;;;5070403;28;19924;-67
2023/01/20 10:18:37;;;;;;;;;;;;;;;;;;5070239;28;20338;-66
2023/01/20 10:21:03;;;;;;;;;;;;;;;;;;5071215;28;19909;-67
2023/01/20 10:23:29;;;;;;;;;;;;;;;;;;5070309;28;19913;-67
2023/01/20 10:25:55;;;;;;;;;;;;;;;;;;5070316;28;20006;-67
2023/01/20 10:28:21;;;;;;;;;;;;;;;;;;5070567;28;19916;-67
2023/01/20 10:30:47;;;;;;;;;;;;;;;;;;5069967;28;19912;-65
2023/01/20 10:33:13;;;;;;;;;;;;;;;;;;5070550;28;19909;-67
2023/01/20 10:35:39;;;;;;;;;;;;;;;;;;5070311;28;19916;-66
2023/01/20 10:38:05;;;;;;;;;;;;;;;;;;5070257;28;19908;-67
2023/01/20 10:40:31;;;;;;;;;;;;;;;;;;5070050;28;20284;-67
2023/01/20 10:42:56;;;;;;;;;;;;;;;;;;5068983;28;19913;-67
2023/01/20 10:45:22;;;;;;;;;;;;;;;;;;5069648;28;19913;-67
2023/01/20 10:47:48;;;;;;;;;;;;;;;;;;5069741;28;19912;-67
2023/01/20 10:50:14;;;;;;;;;;;;;;;;;;5070048;28;19916;-67
2023/01/20 10:52:40;;;;;;;;;;;;;;;;;;5070085;28;19939;-66
2023/01/20 10:55:06;;;;;;;;;;;;;;;;;;5063124;28;19908;-67
2023/01/20 10:57:32;;;;;;;;;;;;;;;;;;5069334;28;19920;-67
2023/01/20 10:59:58;;;;;;;;;;;;;;;;;;5069544;28;19908;-67
2023/01/20 11:02:24;;;;;;;;;;;;;;;;;;5069545;28;19916;-67
2023/01/20 11:04:50;;;;;;;;;;;;;;;;;;5069469;28;19954;-67
2023/01/20 11:07:16;;;;;;;;;;;;;;;;;;5069887;28;19916;-66
2023/01/20 11:09:42;;;;;;;;;;;;;;;;;;5058466;28;19949;-67
2023/01/20 11:12:08;;;;;;;;;;;;;;;;;;5048960;28;19913;-66
2023/01/20 11:14:34;;;;;;;;;;;;;;;;;;5049331;28;20266;-66
2023/01/20 11:16:59;;;;;;;;;;;;;;;;;;5049319;28;19921;-67
2023/01/20 11:19:25;;;;;;;;;;;;;;;;;;5049046;28;19955;-66
2023/01/20 11:21:51;;;;;;;;;;;;;;;;;;5049336;28;20272;-66
2023/01/20 11:24:17;;;;;;;;;;;;;;;;;;5049332;28;19913;-66
2023/01/20 11:26:43;;;;;;;;;;;;;;;;;;5049048;28;19913;-67
2023/01/20 11:29:09;;;;;;;;;;;;;;;;;;5049072;28;20786;-66
2023/01/20 11:31:35;;;;;;;;;;;;;;;;;;5048977;28;19945;-67
2023/01/20 11:34:01;;;;;;;;;;;;;;;;;;5049086;28;19913;-67
2023/01/20 11:36:27;;;;;;;;;;;;;;;;;;5049378;28;19920;-67
2023/01/20 11:38:53;;;;;;;;;;;;;;;;;;5031277;28;19920;-66
2023/01/20 11:41:19;;;;;;;;;;;;;;;;;;5048386;28;19912;-67
2023/01/20 11:43:45;;;;;;;;;;;;;;;;;;5048757;28;20367;-63
2023/01/20 11:46:11;;;;;;;;;;;;;;;;;;5047821;28;19935;-64
2023/01/20 11:48:37;;;;;;;;;;;;;;;;;;5048681;28;20007;-66
2023/01/20 11:51:03;;;;;;;;;;;;;;;;;;5042897;28;20376;-65
2023/01/20 11:53:32;;;;;;;;;;;;;;;;;;5041924;28;20384;-66
2023/01/20 11:55:58;;;;;;;;;;;;;;;;;;5031154;28;19921;-65
2023/01/20 11:58:24;;;;;;;;;;;;;;;;;;5037415;28;19917;-66
2023/01/20 12:00:50;;;;;;;;;;;;;;;;;;5036771;28;19917;-66
2023/01/20 12:03:16;;;;;;;;;;;;;;;;;;5047877;28;19924;-63
2023/01/20 12:05:42;;;;;;;;;;;;;;;;;;5051266;28;19916;-65
2023/01/20 12:08:08;;;;;;;;;;;;;;;;;;5046126;28;20023;-64
2023/01/20 12:10:34;;;;;;;;;;;;;;;;;;5044918;28;20023;-64
2023/01/20 12:13:00;;;;;;;;;;;;;;;;;;5044543;28;19917;-63
2023/01/20 12:15:26;;;;;;;;;;;;;;;;;;5038144;28;19932;-65
2023/01/20 12:17:52;;;;;;;;;;;;;;;;;;5035077;28;19989;-67
2023/01/20 12:20:18;;;;;;;;;;;;;;;;;;5037803;28;19917;-63
2023/01/20 12:22:44;;;;;;;;;;;;;;;;;;5033856;28;20266;-65
2023/01/20 12:25:11;;;;;;;;;;;;;;;;;;5054126;28;19916;-65
2023/01/20 12:27:37;;;;;;;;;;;;;;;;;;5056295;28;19939;-65
2023/01/20 12:30:03;;;;;;;;;;;;;;;;;;5061585;28;20308;-66
2023/01/20 12:32:32;;;;;;;;;;;;;;;;;;5062050;28;19923;-65
2023/01/20 12:34:57;;;;;;;;;;;;;;;;;;5060154;28;20459;-65
2023/01/20 12:37:23;;;;;;;;;;;;;;;;;;5055366;28;19928;-65
2023/01/20 12:39:49;;;;;;;;;;;;;;;;;;5443005;23;20706;-63
2023/01/20 12:42:15;;;;;;;;;;;;;;;;;;5061484;28;19967;-64
2023/01/20 12:44:41;;;;;;;;;;;;;;;;;;5066088;28;19917;-64
2023/01/20 12:47:07;;;;;;;;;;;;;;;;;;5065000;28;20011;-64
2023/01/20 12:49:33;;;;;;;;;;;;;;;;;;5066634;28;19927;-64
2023/01/20 12:51:59;;;;;;;;;;;;;;;;;;5066554;28;20406;-65
2023/01/20 12:54:25;;;;;;;;;;;;;;;;;;5066106;28;19916;-64
2023/01/20 12:56:50;;;;;;;;;;;;;;;;;;5066627;28;20362;-61
2023/01/20 12:59:16;;;;;;;;;;;;;;;;;;5066044;28;19919;-63
2023/01/20 13:01:42;;;;;;;;;;;;;;;;;;5066432;28;20300;-64
2023/01/20 13:04:08;;;;;;;;;;;;;;;;;;5066249;28;19923;-61
2023/01/20 13:06:34;;;;;;;;;;;;;;;;;;5065910;28;19939;-62
2023/01/20 13:09:00;;;;;;;;;;;;;;;;;;5060054;28;20450;-64
2023/01/20 13:11:26;;;;;;;;;;;;;;;;;;5065392;28;19913;-65
2023/01/20 13:13:52;;;;;;;;;;;;;;;;;;5063617;28;19986;-65
2023/01/20 13:16:18;;;;;;;;;;;;;;;;;;5065512;28;19974;-64
2023/01/20 13:18:44;;;;;;;;;;;;;;;;;;5062383;28;19916;-65
2023/01/20 13:21:10;;;;;;;;;;;;;;;;;;5065632;28;19916;-64
2023/01/20 13:23:36;;;;;;;;;;;;;;;;;;5065348;28;19917;-64
2023/01/20 13:26:02;;;;;;;;;;;;;;;;;;5070110;28;19963;-64
2023/01/20 13:28:28;;;;;;;;;;;;;;;;;;5069355;28;19952;-64
2023/01/20 13:30:54;;;;;;;;;;;;;;;;;;5069421;28;19916;-65
2023/01/20 13:33:20;;;;;;;;;;;;;;;;;;5069689;28;19932;-66
2023/01/20 13:35:46;;;;;;;;;;;;;;;;;;5069769;28;19920;-66
2023/01/20 13:38:12;;;;;;;;;;;;;;;;;;5069078;28;20307;-67
2023/01/20 13:40:37;;;;;;;;;;;;;;;;;;5068715;28;20778;-63
2023/01/20 13:43:03;;;;;;;;;;;;;;;;;;5069196;28;19920;-65
2023/01/20 13:45:29;;;;;;;;;;;;;;;;;;5064068;28;19923;-65
2023/01/20 13:47:58;;;;;;;;;;;;;;;;;;5067783;28;20334;-65
2023/01/20 13:50:24;;;;;;;;;;;;;;;;;;5068746;28;19920;-65
2023/01/20 13:52:53;;;;;;;;;;;;;;;;;;5067569;28;19924;-65
2023/01/20 13:55:19;;;;;;;;;;;;;;;;;;5048731;28;20331;-65
2023/01/20 13:57:45;;;;;;;;;;;;;;;;;;5065821;28;19924;-65
2023/01/20 14:00:11;;;;;;;;;;;;;;;;;;5063960;28;19917;-64
2023/01/20 14:02:37;;;;;;;;;;;;;;;;;;5066486;28;19916;-63
2023/01/20 14:05:03;;;;;;;;;;;;;;;;;;5068308;28;20415;-65
2023/01/20 14:07:29;;;;;;;;;;;;;;;;;;5065528;28;19917;-65
2023/01/20 14:09:55;;;;;;;;;;;;;;;;;;5064570;28;19913;-64
2023/01/20 14:12:21;;;;;;;;;;;;;;;;;;5067326;28;19913;-65
2023/01/20 14:14:49;;;;;;;;;;;;;;;;;;5042928;28;19925;-63
2023/01/20 14:17:14;;;;;;;;;;;;;;;;;;5062134;28;20012;-64
2023/01/20 14:19:40;;;;;;;;;;;;;;;;;;5068206;28;20015;-65
2023/01/20 14:22:06;;;;;;;;;;;;;;;;;;5066437;28;20402;-65
2023/01/20 14:24:32;;;;;;;;;;;;;;;;;;5069073;28;19939;-65
2023/01/20 14:26:59;;;;;;;;;;;;;;;;;;5068831;28;20353;-65
2023/01/20 14:29:24;;;;;;;;;;;;;;;;;;5070750;28;19999;-65
2023/01/20 14:31:50;;;;;;;;;;;;;;;;;;5068675;28;19999;-65
2023/01/20 14:34:16;;;;;;;;;;;;;;;;;;5050679;28;19912;-64
2023/01/20 14:36:42;;;;;;;;;;;;;;;;;;5067189;28;20038;-65
2023/01/20 14:39:08;;;;;;;;;;;;;;;;;;5049881;28;19995;-64
2023/01/20 14:41:34;;;;;;;;;;;;;;;;;;5050620;28;19955;-65
2023/01/20 14:44:00;;;;;;;;;;;;;;;;;;5068135;28;19998;-65
2023/01/20 14:46:26;;;;;;;;;;;;;;;;;;5066681;28;19927;-64
2023/01/20 14:48:52;;;;;;;;;;;;;;;;;;5068284;28;19916;-64
2023/01/20 14:51:18;;;;;;;;;;;;;;;;;;5066972;28;20384;-64
2023/01/20 14:53:44;;;;;;;;;;;;;;;;;;5066407;28;19917;-64
2023/01/20 14:56:10;;;;;;;;;;;;;;;;;;5065066;28;20298;-64
2023/01/20 14:58:36;;;;;;;;;;;;;;;;;;5061695;28;19925;-65
2023/01/20 15:01:02;;;;;;;;;;;;;;;;;;5068389;28;19923;-64
2023/01/20 15:03:27;;;;;;;;;;;;;;;;;;5067355;28;19971;-62
2023/01/20 15:05:53;;;;;;;;;;;;;;;;;;5049388;28;20011;-65
2023/01/20 15:08:20;;;;;;;;;;;;;;;;;;5065315;28;20011;-66
2023/01/20 15:10:46;;;;;;;;;;;;;;;;;;5065805;28;20170;-64
2023/01/20 15:13:12;;;;;;;;;;;;;;;;;;5066773;28;20288;-64
2023/01/20 15:15:38;;;;;;;;;;;;;;;;;;5063843;28;20500;-64
2023/01/20 15:18:04;;;;;;;;;;;;;;;;;;5063345;28;19947;-65
2023/01/20 15:20:32;;;;;;;;;;;;;;;;;;5061711;28;20011;-65
2023/01/20 15:22:58;;;;;;;;;;;;;;;;;;5062132;28;19939;-66
2023/01/20 15:25:24;;;;;;;;;;;;;;;;;;5064705;28;19925;-64
2023/01/20 15:27:50;;;;;;;;;;;;;;;;;;5067440;28;19927;-63
2023/01/20 15:30:18;;;;;;;;;;;;;;;;;;5066774;28;20319;-64
2023/01/20 15:32:43;;;;;;;;;;;;;;;;;;5066688;28;20010;-64
2023/01/20 15:35:09;;;;;;;;;;;;;;;;;;5063441;28;20011;-65
2023/01/20 15:37:35;;;;;;;;;;;;;;;;;;5048745;28;19944;-62
2023/01/20 15:40:01;;;;;;;;;;;;;;;;;;5064300;28;19924;-65
2023/01/20 15:42:27;;;;;;;;;;;;;;;;;;5065831;28;19923;-65
2023/01/20 15:44:53;;;;;;;;;;;;;;;;;;5060706;28;19970;-64
2023/01/20 15:47:19;;;;;;;;;;;;;;;;;;5066188;28;19917;-64
2023/01/20 15:49:45;;;;;;;;;;;;;;;;;;5064639;28;19916;-65
2023/01/20 15:52:11;;;;;;;;;;;;;;;;;;5064926;28;19916;-65
2023/01/20 15:54:37;;;;;;;;;;;;;;;;;;5060170;28;20493;-65
2023/01/20 15:57:03;;;;;;;;;;;;;;;;;;5061690;28;19928;-65
2023/01/20 15:59:30;;;;;;;;;;;;;;;;;;5060999;28;19916;-65
2023/01/20 16:01:56;;;;;;;;;;;;;;;;;;5064903;28;20400;-65
2023/01/20 16:04:22;;;;;;;;;;;;;;;;;;5065585;28;19912;-64
2023/01/20 16:06:47;;;;;;;;;;;;;;;;;;5064544;28;19943;-65
2023/01/20 16:09:13;;;;;;;;;;;;;;;;;;5064329;28;20026;-65
2023/01/20 16:11:41;;;;;;;;;;;;;;;;;;5066031;28;19923;-64
2023/01/20 16:14:07;;;;;;;;;;;;;;;;;;5062261;28;19913;-65
2023/01/20 16:16:32;;;;;;;;;;;;;;;;;;5062761;28;19925;-65
2023/01/20 16:18:58;;;;;;;;;;;;;;;;;;5065324;28;20010;-64
2023/01/20 16:21:24;;;;;;;;;;;;;;;;;;5060712;28;20016;-66
2023/01/20 16:23:50;;;;;;;;;;;;;;;;;;5064345;28;19916;-70
2023/01/20 16:26:16;;;;;;;;;;;;;;;;;;5060466;28;19917;-64
2023/01/20 16:28:42;;;;;;;;;;;;;;;;;;5056767;28;19916;-65
2023/01/20 16:31:08;;;;;;;;;;;;;;;;;;5060610;28;19917;-64
2023/01/20 16:33:34;;;;;;;;;;;;;;;;;;5063930;28;19919;-65
2023/01/20 16:36:00;;;;;;;;;;;;;;;;;;5058339;28;19936;-63
2023/01/20 16:38:25;;;;;;;;;;;;;;;;;;5064868;28;19928;-64
2023/01/20 16:40:51;;;;;;;;;;;;;;;;;;5062428;28;19967;-63
2023/01/20 16:43:17;;;;;;;;;;;;;;;;;;5064701;28;19917;-65
2023/01/20 16:45:43;;;;;;;;;;;;;;;;;;5064666;28;19912;-66
2023/01/20 16:48:09;;;;;;;;;;;;;;;;;;5066752;28;19915;-67